AAY991 KATW-KPIE
Flight info
| Callsign | AAY991 |
|---|---|
| Flight time | N/A |
| Altitude | 37000 |
| Route | BAE J89 IIU Q79 SWAPP/N0449F390 Q79 THRSR/N0453F380 HONID BANGZ2 |
| Aircraft | B38M/M-SDE1FGHILORVWXY/HB1 |
Departure
| Time | 2026-05-06 02:02 |
|---|---|
| Airport | Appleton International Airport (KATW) |
Arrival
| Time | N/A |
|---|---|
| Airport | St. Petersburg Clearwater International Airport (KPIE) |
| Time | Latitude | Longitude | Altitude | Speed | Heading |
|---|---|---|---|---|---|
| 2026-05-06 01:44 | 44.25961 | -88.51315 | 891 ft | 0 kts | 0° |
| 2026-05-06 01:54 | 44.25957 | -88.51315 | 891 ft | 3 kts | 0° |
| 2026-05-06 01:54 | 44.25930 | -88.51315 | 891 ft | 4 kts | 0° |
| 2026-05-06 01:54 | 44.25903 | -88.51315 | 891 ft | 4 kts | 0° |
| 2026-05-06 01:54 | 44.25894 | -88.51315 | 891 ft | 0 kts | 0° |
| 2026-05-06 01:57 | 44.25896 | -88.51316 | 891 ft | 1 kts | 347° |
| 2026-05-06 01:58 | 44.25909 | -88.51343 | 891 ft | 5 kts | 274° |
| 2026-05-06 01:58 | 44.25902 | -88.51438 | 891 ft | 15 kts | 256° |
| 2026-05-06 01:58 | 44.25868 | -88.51613 | 892 ft | 20 kts | 254° |
| 2026-05-06 01:58 | 44.25831 | -88.51783 | 900 ft | 17 kts | 245° |
| 2026-05-06 01:59 | 44.25732 | -88.51878 | 899 ft | 19 kts | 206° |
| 2026-05-06 01:59 | 44.25588 | -88.51976 | 897 ft | 28 kts | 206° |
| 2026-05-06 01:59 | 44.25423 | -88.52088 | 896 ft | 30 kts | 206° |
| 2026-05-06 01:59 | 44.25245 | -88.52210 | 895 ft | 27 kts | 206° |
| 2026-05-06 02:00 | 44.25074 | -88.52326 | 896 ft | 28 kts | 205° |
| 2026-05-06 02:00 | 44.24923 | -88.52429 | 898 ft | 18 kts | 206° |
| 2026-05-06 02:00 | 44.24869 | -88.52511 | 896 ft | 9 kts | 279° |
| 2026-05-06 02:00 | 44.24912 | -88.52601 | 894 ft | 8 kts | 334° |
| 2026-05-06 02:01 | 44.24927 | -88.52596 | 894 ft | 1 kts | 26° |
| 2026-05-06 02:01 | 44.25048 | -88.52515 | 898 ft | 56 kts | 25° |
| 2026-05-06 02:01 | 44.25663 | -88.52094 | 898 ft | 137 kts | 26° |
| 2026-05-06 02:01 | 44.26681 | -88.51379 | 1169 ft | 176 kts | 28° |
| 2026-05-06 02:02 | 44.27803 | -88.50602 | 2119 ft | 184 kts | 22° |
| 2026-05-06 02:02 | 44.28973 | -88.49800 | 3016 ft | 196 kts | 22° |
| 2026-05-06 02:02 | 44.30257 | -88.48859 | 3571 ft | 220 kts | 24° |
| 2026-05-06 02:02 | 44.31681 | -88.47791 | 4167 ft | 242 kts | 24° |
| 2026-05-06 02:03 | 44.33095 | -88.46556 | 5388 ft | 243 kts | 39° |
| 2026-05-06 02:03 | 44.34077 | -88.44526 | 6225 ft | 268 kts | 67° |
| 2026-05-06 02:03 | 44.34330 | -88.41860 | 6929 ft | 290 kts | 95° |
| 2026-05-06 02:03 | 44.34021 | -88.40025 | 7535 ft | 293 kts | 111° |
| 2026-05-06 02:04 | 44.33089 | -88.37504 | 8601 ft | 295 kts | 133° |
| 2026-05-06 02:04 | 44.31451 | -88.35873 | 9619 ft | 290 kts | 165° |
| 2026-05-06 02:04 | 44.29483 | -88.35463 | 10487 ft | 289 kts | 184° |
| 2026-05-06 02:04 | 44.27405 | -88.35404 | 11016 ft | 309 kts | 182° |
| 2026-05-06 02:05 | 44.25192 | -88.35273 | 11570 ft | 325 kts | 182° |
| 2026-05-06 02:05 | 44.22881 | -88.35120 | 12221 ft | 337 kts | 182° |
| 2026-05-06 02:05 | 44.20530 | -88.34968 | 13108 ft | 340 kts | 182° |
| 2026-05-06 02:05 | 44.18150 | -88.34820 | 13957 ft | 344 kts | 182° |
| 2026-05-06 02:06 | 44.15749 | -88.34670 | 14748 ft | 346 kts | 184° |
| 2026-05-06 02:06 | 44.13370 | -88.34523 | 15502 ft | 348 kts | 185° |
| 2026-05-06 02:06 | 44.10918 | -88.34395 | 16321 ft | 348 kts | 187° |
| 2026-05-06 02:06 | 44.08523 | -88.34310 | 17068 ft | 352 kts | 186° |
| 2026-05-06 02:07 | 44.06074 | -88.34114 | 17825 ft | 353 kts | 187° |
| 2026-05-06 02:07 | 44.03611 | -88.33936 | 18508 ft | 354 kts | 189° |
| 2026-05-06 02:07 | 44.01132 | -88.33801 | 19053 ft | 358 kts | 189° |
| 2026-05-06 02:07 | 43.98630 | -88.33665 | 19597 ft | 363 kts | 188° |
| 2026-05-06 02:08 | 43.96091 | -88.33483 | 20178 ft | 366 kts | 188° |
| 2026-05-06 02:08 | 43.93536 | -88.33316 | 20725 ft | 370 kts | 189° |
| 2026-05-06 02:08 | 43.90953 | -88.33154 | 21282 ft | 373 kts | 189° |
| 2026-05-06 02:08 | 43.88348 | -88.32995 | 21836 ft | 377 kts | 189° |
| 2026-05-06 02:09 | 43.85715 | -88.32834 | 22358 ft | 381 kts | 189° |
| 2026-05-06 02:09 | 43.83050 | -88.32673 | 22885 ft | 385 kts | 189° |
| 2026-05-06 02:09 | 43.80366 | -88.32511 | 23409 ft | 388 kts | 189° |
| 2026-05-06 02:09 | 43.77654 | -88.32347 | 23843 ft | 392 kts | 189° |
| 2026-05-06 02:10 | 43.74919 | -88.32181 | 24312 ft | 394 kts | 189° |
| 2026-05-06 02:10 | 43.72173 | -88.32016 | 24767 ft | 396 kts | 189° |
| 2026-05-06 02:10 | 43.69414 | -88.31851 | 25217 ft | 398 kts | 188° |
| 2026-05-06 02:10 | 43.66634 | -88.31683 | 25666 ft | 401 kts | 188° |
| 2026-05-06 02:11 | 43.63845 | -88.31516 | 26109 ft | 402 kts | 188° |
| 2026-05-06 02:11 | 43.61031 | -88.31348 | 26530 ft | 405 kts | 188° |
| 2026-05-06 02:11 | 43.58213 | -88.31180 | 26939 ft | 407 kts | 188° |
| 2026-05-06 02:11 | 43.55409 | -88.31013 | 27343 ft | 409 kts | 188° |
| 2026-05-06 02:12 | 43.52550 | -88.30843 | 27736 ft | 412 kts | 188° |
| 2026-05-06 02:12 | 43.49678 | -88.30672 | 28130 ft | 414 kts | 188° |
| 2026-05-06 02:12 | 43.46789 | -88.30501 | 28503 ft | 417 kts | 188° |
| 2026-05-06 02:12 | 43.43880 | -88.30329 | 28878 ft | 420 kts | 188° |
| 2026-05-06 02:13 | 43.40951 | -88.30155 | 29249 ft | 422 kts | 188° |
| 2026-05-06 02:13 | 43.38010 | -88.29981 | 29616 ft | 424 kts | 188° |
| 2026-05-06 02:13 | 43.35052 | -88.29806 | 29964 ft | 427 kts | 188° |
| 2026-05-06 02:13 | 43.32078 | -88.29632 | 30249 ft | 430 kts | 188° |
| 2026-05-06 02:14 | 43.29086 | -88.29457 | 30534 ft | 432 kts | 188° |
| 2026-05-06 02:14 | 43.26073 | -88.29280 | 30832 ft | 433 kts | 188° |
| 2026-05-06 02:14 | 43.23054 | -88.29103 | 31131 ft | 435 kts | 189° |
| 2026-05-06 02:14 | 43.20023 | -88.28925 | 31453 ft | 437 kts | 189° |
| 2026-05-06 02:15 | 43.16977 | -88.28746 | 31757 ft | 438 kts | 189° |
| 2026-05-06 02:15 | 43.13925 | -88.28568 | 32082 ft | 439 kts | 190° |
| 2026-05-06 02:15 | 43.10855 | -88.28090 | 32465 ft | 457 kts | 179° |
| 2026-05-06 02:15 | 43.07774 | -88.26896 | 32890 ft | 458 kts | 179° |
| 2026-05-06 02:16 | 43.04690 | -88.25774 | 33220 ft | 459 kts | 179° |
| 2026-05-06 02:16 | 43.01605 | -88.24633 | 33602 ft | 459 kts | 179° |
| 2026-05-06 02:16 | 42.98523 | -88.23481 | 33955 ft | 459 kts | 179° |
| 2026-05-06 02:16 | 42.95447 | -88.22327 | 34226 ft | 459 kts | 179° |
| 2026-05-06 02:17 | 42.92365 | -88.21172 | 34484 ft | 460 kts | 179° |
| 2026-05-06 02:17 | 42.89310 | -88.20028 | 34737 ft | 461 kts | 179° |
| 2026-05-06 02:17 | 42.86216 | -88.18871 | 34997 ft | 462 kts | 179° |
| 2026-05-06 02:17 | 42.83118 | -88.17713 | 35252 ft | 462 kts | 179° |
| 2026-05-06 02:18 | 42.80006 | -88.16551 | 35509 ft | 463 kts | 179° |
| 2026-05-06 02:18 | 42.76903 | -88.15394 | 35753 ft | 463 kts | 179° |
| 2026-05-06 02:18 | 42.73787 | -88.14233 | 35993 ft | 464 kts | 179° |
| 2026-05-06 02:18 | 42.70670 | -88.13073 | 36234 ft | 464 kts | 179° |
| 2026-05-06 02:19 | 42.67541 | -88.11910 | 36472 ft | 465 kts | 179° |
| 2026-05-06 02:19 | 42.64464 | -88.10767 | 36691 ft | 465 kts | 179° |
| 2026-05-06 02:19 | 42.61340 | -88.09609 | 36872 ft | 466 kts | 179° |
| 2026-05-06 02:19 | 42.58200 | -88.08445 | 36902 ft | 467 kts | 179° |
| 2026-05-06 02:20 | 42.48824 | -88.04978 | 36899 ft | 466 kts | 179° |
| 2026-05-06 02:21 | 42.42568 | -88.02670 | 36879 ft | 466 kts | 179° |
| 2026-05-06 02:21 | 42.36305 | -88.00364 | 36883 ft | 466 kts | 179° |
| 2026-05-06 02:22 | 42.30041 | -87.98063 | 36878 ft | 467 kts | 179° |
| 2026-05-06 02:22 | 42.23764 | -87.95761 | 36887 ft | 467 kts | 179° |
| 2026-05-06 02:22 | 42.20643 | -87.94321 | 36896 ft | 480 kts | 172° |
| 2026-05-06 02:23 | 42.17538 | -87.92652 | 36902 ft | 482 kts | 172° |
| 2026-05-06 02:23 | 42.11305 | -87.89275 | 36888 ft | 482 kts | 172° |
| 2026-05-06 02:24 | 42.05526 | -87.86142 | 36892 ft | 482 kts | 172° |
| 2026-05-06 02:24 | 41.99342 | -87.82795 | 36874 ft | 482 kts | 172° |
| 2026-05-06 02:25 | 41.93113 | -87.79431 | 36872 ft | 483 kts | 172° |
| 2026-05-06 02:25 | 41.86859 | -87.76060 | 36882 ft | 483 kts | 172° |
| 2026-05-06 02:26 | 41.80618 | -87.72704 | 36878 ft | 484 kts | 172° |
| 2026-05-06 02:26 | 41.74419 | -87.69377 | 36876 ft | 484 kts | 172° |
| 2026-05-06 02:27 | 41.68157 | -87.66024 | 36877 ft | 485 kts | 172° |
| 2026-05-06 02:27 | 41.61888 | -87.62674 | 36896 ft | 485 kts | 172° |
| 2026-05-06 02:28 | 41.55617 | -87.59329 | 36902 ft | 486 kts | 172° |
| 2026-05-06 02:28 | 41.49396 | -87.56018 | 36901 ft | 486 kts | 172° |
| 2026-05-06 02:29 | 41.43142 | -87.52697 | 36899 ft | 487 kts | 172° |
| 2026-05-06 02:29 | 41.36837 | -87.49356 | 36887 ft | 488 kts | 172° |
| 2026-05-06 02:30 | 41.30531 | -87.46021 | 36884 ft | 488 kts | 172° |
| 2026-05-06 02:30 | 41.24213 | -87.42686 | 36878 ft | 489 kts | 172° |
| 2026-05-06 02:31 | 41.17888 | -87.39354 | 36882 ft | 489 kts | 172° |
| 2026-05-06 02:31 | 41.11556 | -87.36025 | 36894 ft | 489 kts | 172° |
| 2026-05-06 02:32 | 41.05219 | -87.32700 | 36897 ft | 489 kts | 172° |
| 2026-05-06 02:32 | 40.98895 | -87.29388 | 36908 ft | 489 kts | 172° |
| 2026-05-06 02:33 | 40.92564 | -87.26080 | 36903 ft | 488 kts | 172° |
| 2026-05-06 02:33 | 40.90476 | -87.24990 | 36909 ft | 488 kts | 172° |
| 2026-05-06 02:34 | 40.79927 | -87.19498 | 36901 ft | 488 kts | 172° |
| 2026-05-06 02:34 | 40.73652 | -87.16247 | 36897 ft | 487 kts | 172° |
| 2026-05-06 02:35 | 40.67336 | -87.12980 | 36889 ft | 487 kts | 172° |
| 2026-05-06 02:35 | 40.61013 | -87.09717 | 36886 ft | 487 kts | 172° |
| 2026-05-06 02:36 | 40.54724 | -87.06292 | 36889 ft | 497 kts | 166° |
| 2026-05-06 02:36 | 40.48514 | -87.02308 | 36891 ft | 496 kts | 167° |
| 2026-05-06 02:37 | 40.42281 | -86.98409 | 36893 ft | 495 kts | 168° |
| 2026-05-06 02:37 | 40.36051 | -86.94531 | 36897 ft | 495 kts | 168° |
| 2026-05-06 02:38 | 40.29823 | -86.90663 | 36890 ft | 495 kts | 168° |
| 2026-05-06 02:38 | 40.23633 | -86.86807 | 36886 ft | 496 kts | 167° |
| 2026-05-06 02:39 | 40.17412 | -86.82914 | 36881 ft | 496 kts | 167° |
| 2026-05-06 02:39 | 40.11186 | -86.79028 | 36884 ft | 496 kts | 167° |
| 2026-05-06 02:40 | 40.04960 | -86.75150 | 36886 ft | 496 kts | 167° |
| 2026-05-06 02:40 | 39.98726 | -86.71275 | 36888 ft | 496 kts | 167° |
| 2026-05-06 02:41 | 39.94562 | -86.68692 | 36890 ft | 495 kts | 167° |
| 2026-05-06 02:41 | 39.91376 | -86.66717 | 36877 ft | 495 kts | 167° |
| 2026-05-06 02:42 | 39.85144 | -86.62860 | 36887 ft | 495 kts | 167° |
| 2026-05-06 02:42 | 39.78916 | -86.59014 | 36867 ft | 495 kts | 167° |
| 2026-05-06 02:43 | 39.72757 | -86.55218 | 36871 ft | 495 kts | 167° |
| 2026-05-06 02:43 | 39.66524 | -86.51384 | 36867 ft | 495 kts | 167° |
| 2026-05-06 02:44 | 39.60291 | -86.47558 | 36868 ft | 495 kts | 167° |
| 2026-05-06 02:44 | 39.54100 | -86.43765 | 36868 ft | 495 kts | 167° |
| 2026-05-06 02:45 | 39.47866 | -86.39954 | 36864 ft | 496 kts | 167° |
| 2026-05-06 02:45 | 39.41624 | -86.36145 | 36869 ft | 496 kts | 167° |
| 2026-05-06 02:46 | 39.35380 | -86.32342 | 36861 ft | 496 kts | 167° |
| 2026-05-06 02:46 | 39.29128 | -86.28542 | 36860 ft | 497 kts | 167° |
| 2026-05-06 02:47 | 39.22871 | -86.24746 | 36862 ft | 497 kts | 167° |
| 2026-05-06 02:47 | 39.16609 | -86.20955 | 36853 ft | 497 kts | 167° |
| 2026-05-06 02:48 | 39.10339 | -86.17168 | 36851 ft | 498 kts | 167° |
| 2026-05-06 02:48 | 39.04072 | -86.13388 | 36841 ft | 497 kts | 167° |
| 2026-05-06 02:49 | 38.97807 | -86.09617 | 36845 ft | 497 kts | 167° |
| 2026-05-06 02:49 | 38.92599 | -86.06490 | 36837 ft | 497 kts | 167° |
| 2026-05-06 02:50 | 38.85312 | -86.02121 | 36835 ft | 497 kts | 167° |
| 2026-05-06 02:50 | 38.80059 | -85.98978 | 36838 ft | 497 kts | 167° |
| 2026-05-06 02:51 | 38.73784 | -85.95230 | 36830 ft | 497 kts | 167° |
| 2026-05-06 02:51 | 38.66488 | -85.90882 | 36824 ft | 498 kts | 167° |
| 2026-05-06 02:52 | 38.61250 | -85.87766 | 36814 ft | 499 kts | 167° |
| 2026-05-06 02:52 | 38.54951 | -85.84025 | 36809 ft | 499 kts | 167° |
| 2026-05-06 02:53 | 38.48638 | -85.80283 | 36811 ft | 500 kts | 167° |
| 2026-05-06 02:53 | 38.42319 | -85.76546 | 36800 ft | 501 kts | 167° |
| 2026-05-06 02:54 | 38.35986 | -85.72807 | 36806 ft | 501 kts | 167° |
| 2026-05-06 02:54 | 38.29648 | -85.69072 | 36836 ft | 502 kts | 167° |
| 2026-05-06 02:55 | 38.23307 | -85.65343 | 36837 ft | 502 kts | 167° |
| 2026-05-06 02:55 | 38.16955 | -85.61614 | 36839 ft | 503 kts | 167° |
| 2026-05-06 02:56 | 38.10627 | -85.58000 | 36824 ft | 493 kts | 174° |
| 2026-05-06 02:56 | 38.07384 | -85.56997 | 36846 ft | 476 kts | 182° |
| 2026-05-06 02:56 | 38.04128 | -85.56094 | 36815 ft | 480 kts | 181° |
| 2026-05-06 02:57 | 37.97603 | -85.54301 | 36827 ft | 480 kts | 181° |
| 2026-05-06 02:57 | 37.91059 | -85.52535 | 36832 ft | 481 kts | 181° |
| 2026-05-06 02:58 | 37.84508 | -85.50772 | 36836 ft | 482 kts | 181° |
| 2026-05-06 02:58 | 37.77933 | -85.49006 | 36837 ft | 483 kts | 181° |
| 2026-05-06 02:59 | 37.71351 | -85.47242 | 36837 ft | 484 kts | 181° |
| 2026-05-06 02:59 | 37.64754 | -85.45477 | 36835 ft | 485 kts | 181° |
| 2026-05-06 03:00 | 37.58151 | -85.43713 | 36829 ft | 485 kts | 181° |
| 2026-05-06 03:00 | 37.51581 | -85.41961 | 36889 ft | 486 kts | 181° |
| 2026-05-06 03:01 | 37.44951 | -85.40196 | 36907 ft | 487 kts | 181° |
| 2026-05-06 03:01 | 37.38305 | -85.38431 | 36919 ft | 491 kts | 181° |
| 2026-05-06 03:02 | 37.31569 | -85.36644 | 36902 ft | 497 kts | 181° |
| 2026-05-06 03:02 | 37.24803 | -85.34853 | 36895 ft | 497 kts | 181° |
| 2026-05-06 03:03 | 37.18024 | -85.33062 | 36882 ft | 498 kts | 181° |
| 2026-05-06 03:03 | 37.11232 | -85.31271 | 36864 ft | 499 kts | 181° |
| 2026-05-06 03:04 | 37.04476 | -85.29493 | 36859 ft | 499 kts | 180° |
| 2026-05-06 03:04 | 36.97675 | -85.27705 | 36846 ft | 500 kts | 181° |
| 2026-05-06 03:05 | 36.90861 | -85.25917 | 36864 ft | 500 kts | 180° |
| 2026-05-06 03:05 | 36.84038 | -85.24132 | 36876 ft | 501 kts | 180° |
| 2026-05-06 03:06 | 36.77198 | -85.22344 | 36872 ft | 502 kts | 180° |
| 2026-05-06 03:06 | 36.70352 | -85.20558 | 36867 ft | 503 kts | 180° |
| 2026-05-06 03:07 | 36.63486 | -85.18769 | 36865 ft | 504 kts | 180° |
| 2026-05-06 03:07 | 36.56613 | -85.16984 | 36862 ft | 505 kts | 180° |
| 2026-05-06 03:08 | 36.49768 | -85.15208 | 36858 ft | 505 kts | 180° |
| 2026-05-06 03:08 | 36.42875 | -85.13425 | 36879 ft | 507 kts | 180° |
| 2026-05-06 03:09 | 36.35952 | -85.11635 | 36875 ft | 508 kts | 180° |
| 2026-05-06 03:09 | 36.29023 | -85.09847 | 36889 ft | 508 kts | 180° |
| 2026-05-06 03:10 | 36.22096 | -85.08064 | 36909 ft | 508 kts | 180° |
| 2026-05-06 03:10 | 36.15152 | -85.06279 | 36930 ft | 509 kts | 180° |
| 2026-05-06 03:11 | 36.08210 | -85.04498 | 36946 ft | 509 kts | 180° |
| 2026-05-06 03:11 | 36.01260 | -85.02718 | 36955 ft | 510 kts | 180° |
| 2026-05-06 03:12 | 35.94355 | -85.00952 | 36956 ft | 510 kts | 180° |
| 2026-05-06 03:12 | 35.87397 | -84.99177 | 36952 ft | 511 kts | 180° |
| 2026-05-06 03:13 | 35.80431 | -84.97402 | 36953 ft | 511 kts | 180° |
| 2026-05-06 03:13 | 35.73468 | -84.95631 | 36925 ft | 512 kts | 180° |
| 2026-05-06 03:14 | 35.66482 | -84.93858 | 36910 ft | 512 kts | 180° |
| 2026-05-06 03:14 | 35.59517 | -84.92092 | 36907 ft | 511 kts | 180° |
| 2026-05-06 03:15 | 35.52538 | -84.90323 | 36920 ft | 511 kts | 180° |
| 2026-05-06 03:15 | 35.45571 | -84.88561 | 36930 ft | 511 kts | 180° |
| 2026-05-06 03:16 | 35.38607 | -84.86802 | 36939 ft | 511 kts | 180° |
| 2026-05-06 03:16 | 35.31685 | -84.85056 | 36954 ft | 510 kts | 180° |
| 2026-05-06 03:17 | 35.24727 | -84.83305 | 36957 ft | 510 kts | 180° |
| 2026-05-06 03:17 | 35.17766 | -84.81556 | 36957 ft | 510 kts | 180° |
| 2026-05-06 03:18 | 35.10816 | -84.79813 | 36952 ft | 510 kts | 180° |
| 2026-05-06 03:18 | 35.03860 | -84.78072 | 36947 ft | 510 kts | 180° |
| 2026-05-06 03:19 | 34.96907 | -84.76334 | 36950 ft | 510 kts | 180° |
| 2026-05-06 03:19 | 34.89956 | -84.74600 | 36976 ft | 510 kts | 180° |
| 2026-05-06 03:20 | 34.79521 | -84.72002 | 36991 ft | 510 kts | 180° |
| 2026-05-06 03:20 | 34.72570 | -84.70275 | 36977 ft | 509 kts | 179° |
| 2026-05-06 03:21 | 34.65616 | -84.68550 | 36997 ft | 510 kts | 179° |
| 2026-05-06 03:21 | 34.58654 | -84.66819 | 36980 ft | 511 kts | 179° |
| 2026-05-06 03:22 | 34.51681 | -84.64987 | 36982 ft | 513 kts | 179° |
| 2026-05-06 03:22 | 34.44770 | -84.63182 | 36997 ft | 512 kts | 179° |
| 2026-05-06 03:23 | 34.37801 | -84.61367 | 37014 ft | 512 kts | 179° |
| 2026-05-06 03:23 | 34.30830 | -84.59554 | 37014 ft | 512 kts | 179° |
| 2026-05-06 03:24 | 34.23858 | -84.57743 | 37020 ft | 512 kts | 179° |
| 2026-05-06 03:24 | 34.16875 | -84.55933 | 37015 ft | 513 kts | 179° |
| 2026-05-06 03:25 | 34.09899 | -84.54127 | 37023 ft | 513 kts | 179° |
| 2026-05-06 03:25 | 34.02914 | -84.52365 | 37024 ft | 510 kts | 181° |
| 2026-05-06 03:26 | 33.95930 | -84.50835 | 37002 ft | 511 kts | 180° |
| 2026-05-06 03:26 | 33.88932 | -84.49277 | 36996 ft | 511 kts | 180° |
| 2026-05-06 03:27 | 33.81983 | -84.47732 | 37014 ft | 512 kts | 180° |
| 2026-05-06 03:27 | 33.74979 | -84.46177 | 37011 ft | 512 kts | 180° |
| 2026-05-06 03:28 | 33.67956 | -84.44620 | 37024 ft | 512 kts | 180° |
| 2026-05-06 03:28 | 33.60966 | -84.43466 | 37029 ft | 493 kts | 192° |
| 2026-05-06 03:29 | 33.54072 | -84.43331 | 37019 ft | 496 kts | 191° |
| 2026-05-06 03:29 | 33.47169 | -84.43186 | 37052 ft | 496 kts | 191° |
| 2026-05-06 03:30 | 33.40255 | -84.43044 | 37060 ft | 497 kts | 191° |
| 2026-05-06 03:30 | 33.33346 | -84.42903 | 37060 ft | 497 kts | 191° |
| 2026-05-06 03:31 | 33.26435 | -84.42761 | 37048 ft | 497 kts | 191° |
| 2026-05-06 03:31 | 33.19519 | -84.42620 | 37015 ft | 497 kts | 191° |
| 2026-05-06 03:32 | 33.12631 | -84.42479 | 37022 ft | 497 kts | 191° |
| 2026-05-06 03:32 | 33.05704 | -84.42339 | 37012 ft | 497 kts | 191° |
| 2026-05-06 03:33 | 32.98769 | -84.42198 | 37013 ft | 497 kts | 191° |
| 2026-05-06 03:33 | 32.91843 | -84.42057 | 37011 ft | 498 kts | 191° |
| 2026-05-06 03:34 | 32.84971 | -84.41918 | 37012 ft | 497 kts | 191° |
| 2026-05-06 03:34 | 32.78052 | -84.41778 | 37007 ft | 498 kts | 190° |
| 2026-05-06 03:35 | 32.71125 | -84.41638 | 37005 ft | 498 kts | 190° |
| 2026-05-06 03:35 | 32.64197 | -84.41498 | 37003 ft | 497 kts | 190° |
| 2026-05-06 03:36 | 32.57276 | -84.41359 | 37004 ft | 497 kts | 190° |
| 2026-05-06 03:36 | 32.50366 | -84.41220 | 37007 ft | 497 kts | 190° |
| 2026-05-06 03:37 | 32.44613 | -84.41105 | 37008 ft | 497 kts | 190° |
| 2026-05-06 03:37 | 32.36524 | -84.40943 | 37012 ft | 497 kts | 190° |
| 2026-05-06 03:38 | 32.30773 | -84.40828 | 37000 ft | 497 kts | 190° |
| 2026-05-06 03:38 | 32.23853 | -84.40689 | 37016 ft | 497 kts | 190° |
| 2026-05-06 03:39 | 32.16936 | -84.40551 | 37005 ft | 497 kts | 190° |
| 2026-05-06 03:39 | 32.10010 | -84.40413 | 37008 ft | 498 kts | 190° |
| 2026-05-06 03:40 | 32.03083 | -84.40275 | 37010 ft | 498 kts | 189° |
| 2026-05-06 03:40 | 31.96146 | -84.40138 | 37016 ft | 498 kts | 189° |
| 2026-05-06 03:41 | 31.89214 | -84.40000 | 37021 ft | 499 kts | 189° |
| 2026-05-06 03:41 | 31.82261 | -84.39863 | 37031 ft | 499 kts | 189° |
| 2026-05-06 03:42 | 31.75361 | -84.39726 | 37044 ft | 500 kts | 189° |
| 2026-05-06 03:42 | 31.68413 | -84.39589 | 37049 ft | 500 kts | 189° |
| 2026-05-06 03:43 | 31.61469 | -84.39556 | 37056 ft | 498 kts | 191° |
| 2026-05-06 03:43 | 31.54542 | -84.39568 | 37055 ft | 498 kts | 190° |
| 2026-05-06 03:44 | 31.47608 | -84.39575 | 37055 ft | 498 kts | 190° |
| 2026-05-06 03:44 | 31.40671 | -84.39583 | 37050 ft | 498 kts | 190° |
| 2026-05-06 03:45 | 31.33740 | -84.39590 | 37051 ft | 498 kts | 190° |
| 2026-05-06 03:45 | 31.26818 | -84.39597 | 37054 ft | 498 kts | 190° |
| 2026-05-06 03:46 | 31.19892 | -84.39604 | 37055 ft | 497 kts | 190° |
| 2026-05-06 03:46 | 31.12971 | -84.39612 | 37057 ft | 497 kts | 190° |
| 2026-05-06 03:47 | 31.06048 | -84.39619 | 37054 ft | 497 kts | 190° |
| 2026-05-06 03:47 | 30.99132 | -84.39626 | 37059 ft | 497 kts | 189° |
| 2026-05-06 03:48 | 30.92266 | -84.39633 | 37062 ft | 496 kts | 189° |
| 2026-05-06 03:48 | 30.85355 | -84.39641 | 37054 ft | 496 kts | 189° |
| 2026-05-06 03:49 | 30.78459 | -84.39648 | 37049 ft | 496 kts | 189° |
| 2026-05-06 03:49 | 30.71549 | -84.39655 | 37047 ft | 496 kts | 189° |
| 2026-05-06 03:50 | 30.64648 | -84.39662 | 37051 ft | 496 kts | 189° |
| 2026-05-06 03:50 | 30.57742 | -84.39669 | 37061 ft | 496 kts | 189° |
| 2026-05-06 03:51 | 30.50836 | -84.39676 | 37067 ft | 496 kts | 189° |
| 2026-05-06 03:51 | 30.43917 | -84.39683 | 37070 ft | 497 kts | 189° |
| 2026-05-06 03:52 | 30.36984 | -84.39545 | 37059 ft | 506 kts | 180° |
| 2026-05-06 03:52 | 30.33511 | -84.38591 | 37078 ft | 520 kts | 167° |
| 2026-05-06 03:52 | 30.30272 | -84.36739 | 37051 ft | 533 kts | 150° |
| 2026-05-06 03:53 | 30.24508 | -84.31189 | 37050 ft | 541 kts | 143° |
| 2026-05-06 03:53 | 30.18772 | -84.25534 | 37056 ft | 541 kts | 143° |
| 2026-05-06 03:54 | 30.13052 | -84.19878 | 37050 ft | 541 kts | 143° |
| 2026-05-06 03:54 | 30.07331 | -84.14232 | 37044 ft | 541 kts | 143° |
| 2026-05-06 03:55 | 30.01606 | -84.08588 | 37050 ft | 541 kts | 143° |
| 2026-05-06 03:55 | 29.95878 | -84.02952 | 37053 ft | 541 kts | 143° |
| 2026-05-06 03:56 | 29.90149 | -83.97323 | 37057 ft | 541 kts | 143° |
| 2026-05-06 03:56 | 29.84419 | -83.91701 | 37056 ft | 541 kts | 143° |
| 2026-05-06 03:57 | 29.81455 | -83.89071 | 37040 ft | 534 kts | 154° |
| 2026-05-06 03:57 | 29.78268 | -83.87023 | 37061 ft | 533 kts | 155° |
| 2026-05-06 03:57 | 29.71805 | -83.82818 | 37061 ft | 534 kts | 155° |
| 2026-05-06 03:58 | 29.65322 | -83.78639 | 37059 ft | 534 kts | 155° |
| 2026-05-06 03:58 | 29.58866 | -83.74485 | 36799 ft | 528 kts | 155° |
| 2026-05-06 03:59 | 29.55663 | -83.72427 | 36516 ft | 527 kts | 155° |
| 2026-05-06 03:59 | 29.52468 | -83.70375 | 36234 ft | 526 kts | 155° |
| 2026-05-06 03:59 | 29.49274 | -83.68326 | 35962 ft | 526 kts | 155° |
| 2026-05-06 03:59 | 29.46074 | -83.66274 | 35677 ft | 527 kts | 155° |
| 2026-05-06 04:00 | 29.42874 | -83.64223 | 35402 ft | 527 kts | 155° |
| 2026-05-06 04:00 | 29.39674 | -83.62175 | 35133 ft | 527 kts | 155° |
| 2026-05-06 04:00 | 29.36470 | -83.60127 | 34867 ft | 527 kts | 155° |
| 2026-05-06 04:00 | 29.33136 | -83.58485 | 34583 ft | 517 kts | 169° |
| 2026-05-06 04:01 | 29.29688 | -83.57314 | 34339 ft | 518 kts | 168° |
| 2026-05-06 04:01 | 29.26240 | -83.56111 | 34082 ft | 519 kts | 168° |
| 2026-05-06 04:01 | 29.22776 | -83.54926 | 33795 ft | 519 kts | 168° |
| 2026-05-06 04:01 | 29.19310 | -83.53751 | 33509 ft | 519 kts | 168° |
| 2026-05-06 04:02 | 29.15842 | -83.52578 | 33223 ft | 519 kts | 168° |
| 2026-05-06 04:02 | 29.12379 | -83.51407 | 32938 ft | 519 kts | 168° |
| 2026-05-06 04:02 | 29.08907 | -83.50235 | 32663 ft | 520 kts | 168° |
| 2026-05-06 04:02 | 29.05444 | -83.49066 | 32388 ft | 520 kts | 168° |
| 2026-05-06 04:03 | 29.02002 | -83.48016 | 32191 ft | 515 kts | 175° |
| 2026-05-06 04:03 | 28.98474 | -83.47374 | 31944 ft | 512 kts | 179° |
| 2026-05-06 04:03 | 28.94972 | -83.46515 | 31502 ft | 521 kts | 162° |
| 2026-05-06 04:03 | 28.91765 | -83.44520 | 31176 ft | 530 kts | 148° |
| 2026-05-06 04:04 | 28.88656 | -83.42264 | 30918 ft | 529 kts | 155° |
| 2026-05-06 04:04 | 28.85400 | -83.40312 | 30525 ft | 524 kts | 157° |
| 2026-05-06 04:04 | 28.82132 | -83.38499 | 29111 ft | 524 kts | 159° |
| 2026-05-06 04:04 | 28.78816 | -83.36735 | 27480 ft | 527 kts | 159° |
| 2026-05-06 04:05 | 28.75503 | -83.35003 | 26345 ft | 520 kts | 159° |
| 2026-05-06 04:05 | 28.72228 | -83.33307 | 25188 ft | 511 kts | 158° |
| 2026-05-06 04:05 | 28.68998 | -83.31642 | 23886 ft | 509 kts | 158° |
| 2026-05-06 04:05 | 28.65777 | -83.29985 | 22327 ft | 509 kts | 158° |
| 2026-05-06 04:06 | 28.62557 | -83.28328 | 20950 ft | 505 kts | 157° |
| 2026-05-06 04:06 | 28.59380 | -83.26695 | 19720 ft | 497 kts | 157° |
| 2026-05-06 04:06 | 28.56257 | -83.25092 | 18550 ft | 489 kts | 157° |
| 2026-05-06 04:06 | 28.53176 | -83.23510 | 17278 ft | 481 kts | 157° |
| 2026-05-06 04:07 | 28.50151 | -83.21958 | 16012 ft | 473 kts | 156° |
| 2026-05-06 04:07 | 28.48595 | -83.21160 | 15374 ft | 0 kts | 156° |